sensor_id;sensor_type;location;lat;lon;timestamp;pressure;altitude;pressure_sealevel;temperature;humidity
36692;BME280;22678;52.052;4.242;2023-04-27T00:00:03;102184.69;;;7.69;56.99
36692;BME280;22678;52.052;4.242;2023-04-27T00:02:32;102178.31;;;7.59;57.14
36692;BME280;22678;52.052;4.242;2023-04-27T00:04:57;102168.41;;;7.47;57.64
36692;BME280;22678;52.052;4.242;2023-04-27T00:07:22;102191.38;;;7.58;57.53
36692;BME280;22678;52.052;4.242;2023-04-27T00:09:48;102186.06;;;7.54;57.78
36692;BME280;22678;52.052;4.242;2023-04-27T00:12:13;102181.47;;;7.46;57.79
36692;BME280;22678;52.052;4.242;2023-04-27T00:14:38;102174.38;;;7.42;58.01
36692;BME280;22678;52.052;4.242;2023-04-27T00:17:03;102184.84;;;7.42;57.99
36692;BME280;22678;52.052;4.242;2023-04-27T00:19:29;102183.97;;;7.41;58.64
36692;BME280;22678;52.052;4.242;2023-04-27T00:21:54;102178.56;;;7.35;58.55
36692;BME280;22678;52.052;4.242;2023-04-27T00:24:22;102185.56;;;7.36;58.70
36692;BME280;22678;52.052;4.242;2023-04-27T00:26:47;102170.41;;;7.24;58.56
36692;BME280;22678;52.052;4.242;2023-04-27T00:29:12;102181.78;;;7.25;58.80
36692;BME280;22678;52.052;4.242;2023-04-27T00:31:38;102178.31;;;7.26;58.87
36692;BME280;22678;52.052;4.242;2023-04-27T00:34:03;102170.28;;;7.19;58.85
36692;BME280;22678;52.052;4.242;2023-04-27T00:36:28;102165.94;;;7.18;59.22
36692;BME280;22678;52.052;4.242;2023-04-27T00:38:54;102160.50;;;7.12;59.17
36692;BME280;22678;52.052;4.242;2023-04-27T00:41:19;102167.59;;;7.16;59.12
36692;BME280;22678;52.052;4.242;2023-04-27T00:43:45;102124.94;;;6.87;59.69
36692;BME280;22678;52.052;4.242;2023-04-27T00:46:12;102168.28;;;7.09;59.41
36692;BME280;22678;52.052;4.242;2023-04-27T00:48:39;102172.63;;;7.09;59.50
36692;BME280;22678;52.052;4.242;2023-04-27T00:51:04;102168.19;;;7.06;59.83
36692;BME280;22678;52.052;4.242;2023-04-27T00:53:30;102164.63;;;7.03;59.97
36692;BME280;22678;52.052;4.242;2023-04-27T00:55:56;102154.78;;;6.94;59.92
36692;BME280;22678;52.052;4.242;2023-04-27T00:58:22;102172.34;;;6.98;59.98
36692;BME280;22678;52.052;4.242;2023-04-27T01:00:48;102160.69;;;6.87;60.26
36692;BME280;22678;52.052;4.242;2023-04-27T01:03:13;102168.44;;;6.83;60.16
36692;BME280;22678;52.052;4.242;2023-04-27T01:05:38;102163.38;;;6.90;60.36
36692;BME280;22678;52.052;4.242;2023-04-27T01:08:04;102150.88;;;6.79;60.50
36692;BME280;22678;52.052;4.242;2023-04-27T01:10:30;102156.13;;;6.79;60.34
36692;BME280;22678;52.052;4.242;2023-04-27T01:12:55;102164.88;;;6.81;60.59
36692;BME280;22678;52.052;4.242;2023-04-27T01:15:21;102157.69;;;6.74;60.58
36692;BME280;22678;52.052;4.242;2023-04-27T01:17:46;102153.22;;;6.69;61.01
36692;BME280;22678;52.052;4.242;2023-04-27T01:20:12;102156.75;;;6.71;60.91
36692;BME280;22678;52.052;4.242;2023-04-27T01:22:38;102145.31;;;6.67;61.22
36692;BME280;22678;52.052;4.242;2023-04-27T01:25:04;102142.59;;;6.64;61.34
36692;BME280;22678;52.052;4.242;2023-04-27T01:27:30;102146.91;;;6.62;61.07
36692;BME280;22678;52.052;4.242;2023-04-27T01:29:56;102131.03;;;6.56;61.26
36692;BME280;22678;52.052;4.242;2023-04-27T01:32:21;102144.13;;;6.56;61.05
36692;BME280;22678;52.052;4.242;2023-04-27T01:34:46;102139.53;;;6.48;61.51
36692;BME280;22678;52.052;4.242;2023-04-27T01:37:11;102128.91;;;6.42;61.48
36692;BME280;22678;52.052;4.242;2023-04-27T01:39:37;102149.22;;;6.51;61.79
36692;BME280;22678;52.052;4.242;2023-04-27T01:42:03;102128.00;;;6.42;61.54
36692;BME280;22678;52.052;4.242;2023-04-27T01:44:28;102133.19;;;6.40;62.00
36692;BME280;22678;52.052;4.242;2023-04-27T01:46:54;102141.94;;;6.41;61.94
36692;BME280;22678;52.052;4.242;2023-04-27T01:49:19;102133.97;;;6.36;62.12
36692;BME280;22678;52.052;4.242;2023-04-27T01:51:44;102134.84;;;6.37;62.48
36692;BME280;22678;52.052;4.242;2023-04-27T01:54:10;102130.38;;;6.32;62.37
36692;BME280;22678;52.052;4.242;2023-04-27T01:56:35;102117.91;;;6.24;62.67
36692;BME280;22678;52.052;4.242;2023-04-27T01:59:00;102120.59;;;6.27;62.59
36692;BME280;22678;52.052;4.242;2023-04-27T02:01:26;102128.53;;;6.30;62.91
36692;BME280;22678;52.052;4.242;2023-04-27T02:03:52;102129.34;;;6.27;62.75
36692;BME280;22678;52.052;4.242;2023-04-27T02:06:17;102106.41;;;6.17;63.00
36692;BME280;22678;52.052;4.242;2023-04-27T02:08:42;102111.72;;;6.20;62.93
36692;BME280;22678;52.052;4.242;2023-04-27T02:11:08;102098.44;;;6.12;63.03
36692;BME280;22678;52.052;4.242;2023-04-27T02:13:33;102109.81;;;6.14;63.32
36692;BME280;22678;52.052;4.242;2023-04-27T02:15:58;102107.09;;;6.11;63.55
36692;BME280;22678;52.052;4.242;2023-04-27T02:18:26;102111.53;;;6.14;63.54
36692;BME280;22678;52.052;4.242;2023-04-27T02:20:52;102122.78;;;6.11;63.46
36692;BME280;22678;52.052;4.242;2023-04-27T02:23:17;102117.47;;;6.08;63.75
36692;BME280;22678;52.052;4.242;2023-04-27T02:25:42;102111.94;;;5.99;64.02
36692;BME280;22678;52.052;4.242;2023-04-27T02:28:10;102111.09;;;6.00;64.07
36692;BME280;22678;52.052;4.242;2023-04-27T02:30:36;102108.28;;;5.94;64.41
36692;BME280;22678;52.052;4.242;2023-04-27T02:33:01;102109.16;;;5.94;64.35
36692;BME280;22678;52.052;4.242;2023-04-27T02:35:26;102113.50;;;5.94;64.38
36692;BME280;22678;52.052;4.242;2023-04-27T02:37:52;102107.09;;;5.84;64.72
36692;BME280;22678;52.052;4.242;2023-04-27T02:40:17;102115.06;;;5.89;64.99
36692;BME280;22678;52.052;4.242;2023-04-27T02:42:42;102119.41;;;5.88;64.42
36692;BME280;22678;52.052;4.242;2023-04-27T02:45:08;102134.19;;;5.88;65.03
36692;BME280;22678;52.052;4.242;2023-04-27T02:47:33;102132.41;;;5.87;64.84
36692;BME280;22678;52.052;4.242;2023-04-27T02:50:00;102120.81;;;5.78;64.82
36692;BME280;22678;52.052;4.242;2023-04-27T02:52:25;102128.66;;;5.78;65.04
36692;BME280;22678;52.052;4.242;2023-04-27T02:54:50;102132.22;;;5.81;65.27
36692;BME280;22678;52.052;4.242;2023-04-27T02:57:15;102128.56;;;5.75;65.27
36692;BME280;22678;52.052;4.242;2023-04-27T02:59:41;102133.69;;;5.72;65.13
36692;BME280;22678;52.052;4.242;2023-04-27T03:02:06;102130.06;;;5.67;65.18
36692;BME280;22678;52.052;4.242;2023-04-27T03:04:31;102127.53;;;5.70;65.22
36692;BME280;22678;52.052;4.242;2023-04-27T03:06:57;102119.50;;;5.64;65.49
36692;BME280;22678;52.052;4.242;2023-04-27T03:09:22;102129.97;;;5.64;65.80
36692;BME280;22678;52.052;4.242;2023-04-27T03:11:47;102129.97;;;5.64;65.78
36692;BME280;22678;52.052;4.242;2023-04-27T03:14:12;102128.94;;;5.60;65.73
36692;BME280;22678;52.052;4.242;2023-04-27T03:16:38;102149.00;;;5.61;66.01
36692;BME280;22678;52.052;4.242;2023-04-27T03:19:03;102140.97;;;5.55;65.98
36692;BME280;22678;52.052;4.242;2023-04-27T03:21:28;102140.97;;;5.55;66.04
36692;BME280;22678;52.052;4.242;2023-04-27T03:23:54;102135.59;;;5.51;66.13
36692;BME280;22678;52.052;4.242;2023-04-27T03:26:19;102123.25;;;5.45;66.04
36692;BME280;22678;52.052;4.242;2023-04-27T03:28:45;102125.00;;;5.46;66.18
36692;BME280;22678;52.052;4.242;2023-04-27T03:31:12;102136.47;;;5.51;66.09
36692;BME280;22678;52.052;4.242;2023-04-27T03:33:38;102120.56;;;5.43;66.11
36692;BME280;22678;52.052;4.242;2023-04-27T03:36:05;102134.56;;;5.46;66.43
36692;BME280;22678;52.052;4.242;2023-04-27T03:38:31;102121.06;;;5.32;66.32
36692;BME280;22678;52.052;4.242;2023-04-27T03:40:56;102136.91;;;5.38;66.55
36692;BME280;22678;52.052;4.242;2023-04-27T03:43:22;102130.63;;;5.33;66.51
36692;BME280;22678;52.052;4.242;2023-04-27T03:45:48;102118.28;;;5.27;66.85
36692;BME280;22678;52.052;4.242;2023-04-27T03:48:14;102142.03;;;5.35;66.85
36692;BME280;22678;52.052;4.242;2023-04-27T03:50:41;102140.03;;;5.28;66.79
36692;BME280;22678;52.052;4.242;2023-04-27T03:53:06;102139.84;;;5.21;66.64
36692;BME280;22678;52.052;4.242;2023-04-27T03:55:32;102148.59;;;5.23;66.75
36692;BME280;22678;52.052;4.242;2023-04-27T03:57:57;102142.16;;;5.14;66.85
36692;BME280;22678;52.052;4.242;2023-04-27T04:00:22;102131.50;;;5.07;66.89
36692;BME280;22678;52.052;4.242;2023-04-27T04:02:48;102137.63;;;5.08;67.10
36692;BME280;22678;52.052;4.242;2023-04-27T04:05:13;102146.53;;;5.15;67.34
36692;BME280;22678;52.052;4.242;2023-04-27T04:07:39;102140.03;;;5.03;67.15
36692;BME280;22678;52.052;4.242;2023-04-27T04:10:08;102159.38;;;5.08;67.06
36692;BME280;22678;52.052;4.242;2023-04-27T04:12:34;102150.47;;;5.03;67.48
36692;BME280;22678;52.052;4.242;2023-04-27T04:14:59;102159.25;;;5.05;67.26
36692;BME280;22678;52.052;4.242;2023-04-27T04:17:24;102163.66;;;5.06;67.42
36692;BME280;22678;52.052;4.242;2023-04-27T04:19:50;102159.16;;;5.02;67.59
36692;BME280;22678;52.052;4.242;2023-04-27T04:22:15;102156.50;;;5.01;67.40
36692;BME280;22678;52.052;4.242;2023-04-27T04:24:40;102151.16;;;4.98;67.54
36692;BME280;22678;52.052;4.242;2023-04-27T04:27:06;102166.00;;;5.00;67.77
36692;BME280;22678;52.052;4.242;2023-04-27T04:29:31;102165.97;;;4.99;67.89
36692;BME280;22678;52.052;4.242;2023-04-27T04:31:57;102155.25;;;4.91;68.08
36692;BME280;22678;52.052;4.242;2023-04-27T04:34:22;102158.63;;;4.88;67.83
36692;BME280;22678;52.052;4.242;2023-04-27T04:36:48;102167.44;;;4.90;67.72
36692;BME280;22678;52.052;4.242;2023-04-27T04:39:17;102169.13;;;4.90;68.17
36692;BME280;22678;52.052;4.242;2023-04-27T04:41:45;102165.59;;;4.88;68.11
36692;BME280;22678;52.052;4.242;2023-04-27T04:44:11;102157.66;;;4.85;68.05
36692;BME280;22678;52.052;4.242;2023-04-27T04:46:36;102167.25;;;4.86;68.31
36692;BME280;22678;52.052;4.242;2023-04-27T04:49:02;102160.16;;;4.82;67.98
36692;BME280;22678;52.052;4.242;2023-04-27T04:51:28;102167.25;;;4.86;68.29
36692;BME280;22678;52.052;4.242;2023-04-27T04:53:53;102170.69;;;4.85;68.00
36692;BME280;22678;52.052;4.242;2023-04-27T04:56:18;102185.72;;;4.92;68.12
36692;BME280;22678;52.052;4.242;2023-04-27T04:58:44;102180.47;;;4.90;68.30
36692;BME280;22678;52.052;4.242;2023-04-27T05:01:09;102179.53;;;4.90;68.63
36692;BME280;22678;52.052;4.242;2023-04-27T05:03:34;102177.84;;;4.90;68.55
36692;BME280;22678;52.052;4.242;2023-04-27T05:06:00;102182.25;;;4.93;68.29
36692;BME280;22678;52.052;4.242;2023-04-27T05:08:25;102178.66;;;4.89;68.58
36692;BME280;22678;52.052;4.242;2023-04-27T05:10:51;102180.63;;;4.95;68.52
36692;BME280;22678;52.052;4.242;2023-04-27T05:13:17;102175.25;;;4.90;68.77
36692;BME280;22678;52.052;4.242;2023-04-27T05:15:43;102184.00;;;4.93;68.65
36692;BME280;22678;52.052;4.242;2023-04-27T05:18:08;102195.53;;;4.99;68.56
36692;BME280;22678;52.052;4.242;2023-04-27T05:20:37;102186.75;;;4.97;68.45
36692;BME280;22678;52.052;4.242;2023-04-27T05:23:03;102192.19;;;5.03;68.90
36692;BME280;22678;52.052;4.242;2023-04-27T05:25:32;102180.78;;;5.00;68.83
36692;BME280;22678;52.052;4.242;2023-04-27T05:27:57;102143.28;;;4.72;68.58
36692;BME280;22678;52.052;4.242;2023-04-27T05:30:23;102183.38;;;5.00;68.70
36692;BME280;22678;52.052;4.242;2023-04-27T05:32:48;102190.66;;;5.08;68.72
36692;BME280;22678;52.052;4.242;2023-04-27T05:35:14;102185.34;;;5.05;68.77
36692;BME280;22678;52.052;4.242;2023-04-27T05:37:39;102188.06;;;5.08;69.00
36692;BME280;22678;52.052;4.242;2023-04-27T05:40:05;102179.50;;;5.13;68.96
36692;BME280;22678;52.052;4.242;2023-04-27T05:42:33;102190.88;;;5.15;68.93
36692;BME280;22678;52.052;4.242;2023-04-27T05:44:58;102189.38;;;5.21;68.92
36692;BME280;22678;52.052;4.242;2023-04-27T05:47:23;102193.38;;;5.37;68.75
36692;BME280;22678;52.052;4.242;2023-04-27T05:49:50;102190.16;;;5.44;68.66
36692;BME280;22678;52.052;4.242;2023-04-27T05:52:16;102198.69;;;5.65;68.61
36692;BME280;22678;52.052;4.242;2023-04-27T05:54:46;102201.88;;;5.82;68.58
36692;BME280;22678;52.052;4.242;2023-04-27T05:57:11;102197.38;;;6.03;68.37
36692;BME280;22678;52.052;4.242;2023-04-27T05:59:36;102210.19;;;6.23;68.05
36692;BME280;22678;52.052;4.242;2023-04-27T06:02:01;102202.81;;;6.38;67.36
36692;BME280;22678;52.052;4.242;2023-04-27T06:04:27;102200.56;;;6.51;67.17
36692;BME280;22678;52.052;4.242;2023-04-27T06:06:53;102204.31;;;6.59;66.20
36692;BME280;22678;52.052;4.242;2023-04-27T06:09:19;102201.22;;;6.72;65.98
36692;BME280;22678;52.052;4.242;2023-04-27T06:11:44;102197.13;;;6.80;65.67
36692;BME280;22678;52.052;4.242;2023-04-27T06:14:11;102179.78;;;6.84;65.16
36692;BME280;22678;52.052;4.242;2023-04-27T06:16:37;102184.38;;;6.93;64.86
36692;BME280;22678;52.052;4.242;2023-04-27T06:19:04;102195.38;;;7.11;64.79
36692;BME280;22678;52.052;4.242;2023-04-27T06:21:34;102176.47;;;7.22;64.92
36692;BME280;22678;52.052;4.242;2023-04-27T06:23:59;102180.25;;;7.33;63.89
36692;BME280;22678;52.052;4.242;2023-04-27T06:26:25;102191.94;;;7.46;63.64
36692;BME280;22678;52.052;4.242;2023-04-27T06:28:51;102183.25;;;7.47;63.24
36692;BME280;22678;52.052;4.242;2023-04-27T06:31:16;102180.00;;;7.57;63.20
36692;BME280;22678;52.052;4.242;2023-04-27T06:33:41;102192.88;;;7.83;63.17
36692;BME280;22678;52.052;4.242;2023-04-27T06:36:07;102178.41;;;7.99;62.93
36692;BME280;22678;52.052;4.242;2023-04-27T06:38:32;102167.22;;;8.06;62.40
36692;BME280;22678;52.052;4.242;2023-04-27T06:40:58;102178.91;;;8.19;61.64
36692;BME280;22678;52.052;4.242;2023-04-27T06:43:23;102179.06;;;8.27;61.14
36692;BME280;22678;52.052;4.242;2023-04-27T06:45:49;102178.31;;;8.32;60.73
36692;BME280;22678;52.052;4.242;2023-04-27T06:48:14;102180.03;;;8.32;60.18
36692;BME280;22678;52.052;4.242;2023-04-27T06:50:39;102179.25;;;8.36;59.97
36692;BME280;22678;52.052;4.242;2023-04-27T06:53:05;102197.94;;;8.48;59.73
36692;BME280;22678;52.052;4.242;2023-04-27T06:55:30;102193.66;;;8.53;59.06
36692;BME280;22678;52.052;4.242;2023-04-27T06:57:56;102176.31;;;8.58;59.07
36692;BME280;22678;52.052;4.242;2023-04-27T07:00:21;102178.13;;;8.63;58.94
36692;BME280;22678;52.052;4.242;2023-04-27T07:02:46;102188.94;;;8.78;58.42
36692;BME280;22678;52.052;4.242;2023-04-27T07:05:12;102182.00;;;8.82;58.32
36692;BME280;22678;52.052;4.242;2023-04-27T07:07:37;102178.91;;;9.00;58.21
36692;BME280;22678;52.052;4.242;2023-04-27T07:10:03;102175.66;;;9.13;57.41
36692;BME280;22678;52.052;4.242;2023-04-27T07:12:28;102183.84;;;9.32;57.23
36692;BME280;22678;52.052;4.242;2023-04-27T07:14:54;102184.09;;;9.44;57.21
36692;BME280;22678;52.052;4.242;2023-04-27T07:17:19;102185.19;;;9.58;57.09
36692;BME280;22678;52.052;4.242;2023-04-27T07:19:45;102177.59;;;9.74;56.51
36692;BME280;22678;52.052;4.242;2023-04-27T07:22:10;102177.78;;;9.86;55.89
36692;BME280;22678;52.052;4.242;2023-04-27T07:24:36;102182.25;;;9.92;55.18
36692;BME280;22678;52.052;4.242;2023-04-27T07:27:01;102191.09;;;9.95;55.01
36692;BME280;22678;52.052;4.242;2023-04-27T07:29:28;102185.88;;;9.97;54.66
36692;BME280;22678;52.052;4.242;2023-04-27T07:31:54;102183.22;;;9.95;54.60
36692;BME280;22678;52.052;4.242;2023-04-27T07:34:20;102176.28;;;10.02;54.49
36692;BME280;22678;52.052;4.242;2023-04-27T07:36:45;102187.03;;;10.16;54.67
36692;BME280;22678;52.052;4.242;2023-04-27T07:39:11;102182.00;;;10.31;54.43
36692;BME280;22678;52.052;4.242;2023-04-27T07:41:36;102179.50;;;10.41;54.03
36692;BME280;22678;52.052;4.242;2023-04-27T07:44:02;102176.22;;;10.54;53.43
36692;BME280;22678;52.052;4.242;2023-04-27T07:46:27;102188.56;;;10.61;52.40
36692;BME280;22678;52.052;4.242;2023-04-27T07:48:54;102177.16;;;10.59;52.19
36692;BME280;22678;52.052;4.242;2023-04-27T07:51:19;102182.47;;;10.64;51.46
36692;BME280;22678;52.052;4.242;2023-04-27T07:53:45;102184.25;;;10.65;50.93
36692;BME280;22678;52.052;4.242;2023-04-27T07:56:11;102176.44;;;10.73;51.22
36692;BME280;22678;52.052;4.242;2023-04-27T07:58:36;102147.69;;;10.86;51.00
36692;BME280;22678;52.052;4.242;2023-04-27T08:01:02;102177.88;;;11.22;50.67
36692;BME280;22678;52.052;4.242;2023-04-27T08:03:27;102163.91;;;11.30;49.35
36692;BME280;22678;52.052;4.242;2023-04-27T08:05:53;102163.06;;;11.32;49.48
36692;BME280;22678;52.052;4.242;2023-04-27T08:08:18;102152.59;;;11.38;49.25
36692;BME280;22678;52.052;4.242;2023-04-27T08:10:43;102164.13;;;11.51;48.80
36692;BME280;22678;52.052;4.242;2023-04-27T08:13:09;102164.19;;;11.57;48.96
36692;BME280;22678;52.052;4.242;2023-04-27T08:15:35;102161.59;;;11.65;47.92
36692;BME280;22678;52.052;4.242;2023-04-27T08:18:00;102165.19;;;11.70;47.26
36692;BME280;22678;52.052;4.242;2023-04-27T08:20:26;102160.78;;;11.72;47.11
36692;BME280;22678;52.052;4.242;2023-04-27T08:22:51;102160.88;;;11.86;47.22
36692;BME280;22678;52.052;4.242;2023-04-27T08:25:16;102166.28;;;11.97;46.97
36692;BME280;22678;52.052;4.242;2023-04-27T08:27:42;102163.75;;;12.13;46.34
36692;BME280;22678;52.052;4.242;2023-04-27T08:30:07;102169.88;;;12.12;45.78
36692;BME280;22678;52.052;4.242;2023-04-27T08:32:33;102161.91;;;11.99;45.08
36692;BME280;22678;52.052;4.242;2023-04-27T08:34:58;102164.53;;;11.98;45.40
36692;BME280;22678;52.052;4.242;2023-04-27T08:37:23;102157.56;;;12.04;45.19
36692;BME280;22678;52.052;4.242;2023-04-27T08:39:49;102155.00;;;12.18;45.29
36692;BME280;22678;52.052;4.242;2023-04-27T08:42:14;102156.78;;;12.21;45.42
36692;BME280;22678;52.052;4.242;2023-04-27T08:44:41;102135.69;;;12.27;44.93
36692;BME280;22678;52.052;4.242;2023-04-27T08:47:07;102143.75;;;12.52;44.70
36692;BME280;22678;52.052;4.242;2023-04-27T08:49:34;102150.00;;;12.71;44.51
36692;BME280;22678;52.052;4.242;2023-04-27T08:52:00;102142.13;;;12.89;44.29
36692;BME280;22678;52.052;4.242;2023-04-27T08:54:26;102150.09;;;13.06;43.40
36692;BME280;22678;52.052;4.242;2023-04-27T08:56:51;102147.44;;;13.06;43.08
36692;BME280;22678;52.052;4.242;2023-04-27T08:59:17;102138.66;;;13.07;42.97
36692;BME280;22678;52.052;4.242;2023-04-27T09:01:43;102147.47;;;13.14;42.37
36692;BME280;22678;52.052;4.242;2023-04-27T09:04:09;102151.88;;;13.20;41.89
36692;BME280;22678;52.052;4.242;2023-04-27T09:06:35;102146.59;;;13.29;41.43
36692;BME280;22678;52.052;4.242;2023-04-27T09:09:02;102145.72;;;13.33;41.09
36692;BME280;22678;52.052;4.242;2023-04-27T09:13:59;102134.25;;;13.28;39.87
36692;BME280;22678;52.052;4.242;2023-04-27T09:16:25;102135.16;;;13.31;39.58
36692;BME280;22678;52.052;4.242;2023-04-27T09:18:52;102140.47;;;13.42;39.14
36692;BME280;22678;52.052;4.242;2023-04-27T09:21:36;102146.66;;;13.61;39.34
36692;BME280;22678;52.052;4.242;2023-04-27T09:24:11;102142.25;;;13.83;39.48
36692;BME280;22678;52.052;4.242;2023-04-27T09:26:37;102152.78;;;14.08;38.98
36692;BME280;22678;52.052;4.242;2023-04-27T09:29:03;102146.59;;;14.18;38.48
36692;BME280;22678;52.052;4.242;2023-04-27T09:31:32;102154.50;;;14.29;37.72
36692;BME280;22678;52.052;4.242;2023-04-27T09:33:58;102157.16;;;14.28;36.70
36692;BME280;22678;52.052;4.242;2023-04-27T09:36:24;102141.31;;;14.15;37.11
36692;BME280;22678;52.052;4.242;2023-04-27T09:38:51;102151.84;;;14.29;37.06
36692;BME280;22678;52.052;4.242;2023-04-27T09:41:17;102153.59;;;14.40;37.40
36692;BME280;22678;52.052;4.242;2023-04-27T09:43:43;102150.03;;;14.45;36.40
36692;BME280;22678;52.052;4.242;2023-04-27T09:46:12;102145.63;;;14.43;36.38
36692;BME280;22678;52.052;4.242;2023-04-27T09:48:38;102144.75;;;14.42;36.43
36692;BME280;22678;52.052;4.242;2023-04-27T09:51:03;102147.38;;;14.48;36.29
36692;BME280;22678;52.052;4.242;2023-04-27T09:53:50;102142.09;;;14.47;36.11
36692;BME280;22678;52.052;4.242;2023-04-27T09:58:57;102149.09;;;14.71;36.50
36692;BME280;22678;52.052;4.242;2023-04-27T10:01:39;102137.53;;;14.87;36.40
36692;BME280;22678;52.052;4.242;2023-04-27T10:06:57;102139.84;;;15.43;36.08
36692;BME280;22678;52.052;4.242;2023-04-27T10:09:23;102142.34;;;15.60;35.57
36692;BME280;22678;52.052;4.242;2023-04-27T10:11:51;102140.44;;;15.79;35.34
36692;BME280;22678;52.052;4.242;2023-04-27T10:14:19;102119.09;;;15.91;35.49
36692;BME280;22678;52.052;4.242;2023-04-27T10:16:55;102132.13;;;16.13;34.86
36692;BME280;22678;52.052;4.242;2023-04-27T10:19:21;102127.72;;;16.15;34.41
36692;BME280;22678;52.052;4.242;2023-04-27T10:22:00;102136.53;;;16.17;33.97
36692;BME280;22678;52.052;4.242;2023-04-27T10:24:36;102128.66;;;16.09;33.57
36692;BME280;22678;52.052;4.242;2023-04-27T10:27:03;102128.66;;;16.09;33.32
36692;BME280;22678;52.052;4.242;2023-04-27T10:29:37;102129.53;;;16.10;33.28
36692;BME280;22678;52.052;4.242;2023-04-27T10:32:10;102125.97;;;16.11;33.54
36692;BME280;22678;52.052;4.242;2023-04-27T10:34:35;102125.97;;;16.11;32.94
36692;BME280;22678;52.052;4.242;2023-04-27T10:37:09;102119.63;;;16.24;32.56
36692;BME280;22678;52.052;4.242;2023-04-27T10:39:44;102126.69;;;16.28;32.60
36692;BME280;22678;52.052;4.242;2023-04-27T10:42:10;102124.06;;;16.24;32.45
36692;BME280;22678;52.052;4.242;2023-04-27T10:44:36;102124.06;;;16.25;32.10
36692;BME280;22678;52.052;4.242;2023-04-27T10:47:13;102127.63;;;16.21;32.18
36692;BME280;22678;52.052;4.242;2023-04-27T10:49:39;102109.09;;;16.18;31.62
36692;BME280;22678;52.052;4.242;2023-04-27T10:52:05;102104.59;;;16.23;31.93
36692;BME280;22678;52.052;4.242;2023-04-27T10:54:31;102096.53;;;16.34;31.32
36692;BME280;22678;52.052;4.242;2023-04-27T10:57:07;102106.91;;;16.51;31.25
36692;BME280;22678;52.052;4.242;2023-04-27T10:59:34;102100.66;;;16.57;31.65
36692;BME280;22678;52.052;4.242;2023-04-27T11:02:00;102097.88;;;16.64;31.61
36692;BME280;22678;52.052;4.242;2023-04-27T11:04:36;102096.78;;;16.81;31.74
36692;BME280;22678;52.052;4.242;2023-04-27T11:07:02;102100.97;;;17.01;31.97
36692;BME280;22678;52.052;4.242;2023-04-27T11:09:28;102100.81;;;17.10;31.18
36692;BME280;22678;52.052;4.242;2023-04-27T11:11:54;102093.00;;;17.01;30.71
36692;BME280;22678;52.052;4.242;2023-04-27T11:14:19;102101.81;;;17.03;30.78
36692;BME280;22678;52.052;4.242;2023-04-27T11:16:48;102093.94;;;16.96;30.36
36692;BME280;22678;52.052;4.242;2023-04-27T11:19:14;102063.09;;;16.85;30.06
36692;BME280;22678;52.052;4.242;2023-04-27T11:21:39;102075.34;;;16.96;29.85
36692;BME280;22678;52.052;4.242;2023-04-27T11:24:06;102085.78;;;17.09;30.37
36692;BME280;22678;52.052;4.242;2023-04-27T11:26:32;102076.81;;;17.16;30.08
36692;BME280;22678;52.052;4.242;2023-04-27T11:31:44;102079.94;;;17.40;29.99
36692;BME280;22678;52.052;4.242;2023-04-27T11:34:21;102081.56;;;17.50;30.46
36692;BME280;22678;52.052;4.242;2023-04-27T11:37:00;102072.50;;;17.60;29.75
36692;BME280;22678;52.052;4.242;2023-04-27T11:39:31;102057.41;;;17.62;29.62
36692;BME280;22678;52.052;4.242;2023-04-27T11:41:57;102061.75;;;17.66;30.15
36692;BME280;22678;52.052;4.242;2023-04-27T11:44:26;102059.94;;;17.70;29.88
36692;BME280;22678;52.052;4.242;2023-04-27T11:46:52;102067.19;;;17.60;30.13
36692;BME280;22678;52.052;4.242;2023-04-27T11:49:17;102053.06;;;17.58;30.38
36692;BME280;22678;52.052;4.242;2023-04-27T11:51:44;102060.81;;;17.69;30.75
36692;BME280;22678;52.052;4.242;2023-04-27T11:54:10;102071.19;;;17.84;30.69
36692;BME280;22678;52.052;4.242;2023-04-27T11:56:41;102067.56;;;17.87;30.42
36692;BME280;22678;52.052;4.242;2023-04-27T11:59:20;102070.41;;;17.78;30.11
36692;BME280;22678;52.052;4.242;2023-04-27T12:01:45;102051.53;;;17.45;30.10
36692;BME280;22678;52.052;4.242;2023-04-27T12:04:11;102048.34;;;17.23;30.75
36692;BME280;22678;52.052;4.242;2023-04-27T12:06:36;102059.78;;;17.28;31.26
36692;BME280;22678;52.052;4.242;2023-04-27T12:09:02;102039.31;;;17.33;31.19
36692;BME280;22678;52.052;4.242;2023-04-27T12:11:29;102060.22;;;17.53;30.20
36692;BME280;22678;52.052;4.242;2023-04-27T12:13:54;102046.13;;;17.49;30.20
36692;BME280;22678;52.052;4.242;2023-04-27T12:16:21;102059.09;;;17.66;30.29
36692;BME280;22678;52.052;4.242;2023-04-27T12:18:48;102061.41;;;17.85;30.03
36692;BME280;22678;52.052;4.242;2023-04-27T12:21:14;102056.00;;;17.91;29.62
36692;BME280;22678;52.052;4.242;2023-04-27T12:23:40;102052.31;;;17.98;29.77
36692;BME280;22678;52.052;4.242;2023-04-27T12:26:05;102041.72;;;17.95;30.16
36692;BME280;22678;52.052;4.242;2023-04-27T12:28:30;102041.81;;;17.92;29.48
36692;BME280;22678;52.052;4.242;2023-04-27T12:30:56;102034.66;;;17.94;29.82
36692;BME280;22678;52.052;4.242;2023-04-27T12:33:21;102034.47;;;18.02;30.18
36692;BME280;22678;52.052;4.242;2023-04-27T12:35:47;102041.25;;;18.20;29.65
36692;BME280;22678;52.052;4.242;2023-04-27T12:38:12;102033.94;;;18.28;29.70
36692;BME280;22678;52.052;4.242;2023-04-27T12:40:37;102028.69;;;18.25;29.17
36692;BME280;22678;52.052;4.242;2023-04-27T12:43:03;102024.44;;;18.16;29.21
36692;BME280;22678;52.052;4.242;2023-04-27T12:45:28;102026.97;;;18.24;29.58
36692;BME280;22678;52.052;4.242;2023-04-27T12:47:53;102013.66;;;18.24;29.53
36692;BME280;22678;52.052;4.242;2023-04-27T12:50:19;102020.69;;;18.25;29.53
36692;BME280;22678;52.052;4.242;2023-04-27T12:52:46;102041.25;;;18.20;29.05
36692;BME280;22678;52.052;4.242;2023-04-27T12:55:12;102031.00;;;18.00;29.31
36692;BME280;22678;52.052;4.242;2023-04-27T12:57:37;102011.78;;;17.82;29.19
36692;BME280;22678;52.052;4.242;2023-04-27T13:00:03;102017.94;;;17.86;29.31